Tiempo atmosférico en la estación meteorológica de Arroyo Del Ojanco, Jaén (580 m.)



Fecha
DESCASC
Temp. máxima en grados centígrados (hora)
DESCASC
Temp. mínima en grados centígrados (hora)
DESCASC
Temp. media en grados centígrados
DESCASC
Racha de viento máxima en m/sg (hora)
DESCASC
Velocidad máxima media en intervalos de 10 minutos(hora)
DESCASC
Precipitaciones diarias en mm
DESCASC
Precipitaciones de 00:00 a 06:00 en mm
DESCASC
Precipitaciones de 06:00 a 12:00 en mm
DESCASC
Precipitaciones de 12:00 a 18:00 en mm
DESCASC
Precipitaciones de 18:00 a 24:00 en mm
DESCASC
18-01-2018 16.2 (15:20) 1.7 (07:30) 9 3.89 (16:20) 2.22 (00:20) 0 0 0 0 0
17-01-2018 17.6 (16:40) 1.4 (05:30) 9.5 6.39 (14:50) 3.61 (12:50) 0 0 0 0 0
16-01-2018 14.5 (16:30) 0 (07:20) 7.3 8.89 (15:30) 3.33 (16:00) 0 0 0 0 0
15-01-2018 12.3 (17:00) 2.4 (08:10) 7.4 4.17 (14:50) 2.22 (12:20) 0 0 0 0 0
14-01-2018 7.8 (12:50) 4.2 (00:00) 6 6.94 (00:40) 4.17 (00:20) 7.5 0.6 0 5.2 1.7
13-01-2018 10.5 (14:30) 1.4 (00:00) 5.9 8.61 (14:40) 4.72 (14:50) 1.2 0 0 0.8 0.4
12-01-2018 11.6 (17:40) -1.6 (-00:0) 5 3.33 (18:50) 2.5 (18:50) 0 0 0 0 0
11-01-2018 9.5 (16:40) 3.7 (00:00) 6.6 10 (12:10) 6.11 (09:20) 1.2 0 0 1.2 0
10-01-2018 11 (15:20) 5.7 (00:00) 8.3 10.83 (19:50) 6.39 (19:00) 4 0.9 0.1 0 3
09-01-2018 7.7 (18:50) -0.8 (-00:0) 3.4 6.11 (18:50) 3.33 (18:50) 0.5 0 0 0 0.5
08-01-2018 11.4 (16:40) 0.4 (00:00) 5.9 3.61 (11:50) 2.22 (11:30) 0 0 0 0 0
07-01-2018 8.4 (16:00) 2.5 (00:00) 5.4 9.44 (05:30) 6.11 (04:10) 0 0 0 0 0
06-01-2018 11.1 (00:00) 1.1 (00:00) 6.1 11.67 (15:10) 6.67 (15:10) 8.6 0 0 8.6 0
05-01-2018 12.1 (21:20) 9.6 (00:00) 10.9 11.11 (14:10) 6.67 (14:10) 0 0 0 0 0
04-01-2018 12.2 (17:00) 9.1 (09:20) 10.7 5.83 (19:30) 3.61 (16:10) 0 0 0 0 0
03-01-2018 16.1 (17:10) 4.5 (00:00) 10.3 5.83 (18:20) 3.89 (18:20) 0 0 0 0 0
02-01-2018 12.5 (15:40) 5.4 (00:00) 9 5.83 (13:10) 3.61 (13:10) 0 0 0 0 0
01-01-2018 14.3 (16:00) 4.6 (00:00) 9.5 7.22 (16:20) 3.06 (16:40) 0 0 0 0 0
31-12-2017 11.3 (21:00) 3.9 (00:00) 7.6 10 (21:50) 6.11 (22:00) 0 0 0 0 0
30-12-2017 18.5 (17:00) 8.2 (00:00) 13.3 1.67 (17:50) 0 (00:10) 0 0 0 0 0
29-12-2017 13.6 (16:20) 11.4 (00:00) 12.5 8.06 (09:20) 5.28 (10:40) 0 0 0 0 0
28-12-2017 13.3 (19:40) 7.2 (00:00) 10.3 15.83 (13:40) 6.67 (15:10) 0 0 0 0 0
27-12-2017 12.3 (13:50) 6.7 (00:00) 9.5 14.17 (02:20) 8.89 (03:20) 2.5 2.5 0 0 0
26-12-2017 10.2 (12:30) 7.8 (00:00) 9 11.67 (23:59) 7.78 (23:59) 2 0.4 1.6 0 0
25-12-2017 11.5 (16:50) 0.7 (00:00) 6.1 4.72 (18:30) 2.78 (22:50) 0 0 0 0 0
24-12-2017 15.5 (16:40) 2.3 (00:00) 8.9 3.61 (14:40) 1.67 (15:40) 0 0 0 0 0
23-12-2017 17.2 (16:20) 1.1 (00:00) 9.2 4.72 (20:00) 2.78 (02:40) 0 0 0 0 0
22-12-2017 15.9 (16:10) 1.2 (00:00) 8.5 4.17 (17:40) 2.22 (02:20) 0 0 0 0 0
21-12-2017 17.9 (16:40) 0.1 (00:00) 9 4.44 (01:00) 3.33 (01:00) 0 0 0 0 0

Gráficas

Temp. máximas Temp. mínimas Temp. medias Precipitaciones Rachas de viento máximas Velocidades máximas media en intervalos de 10 minutos

Datos horarios

Fecha y hora oficial Temperatura (ºC) Velocidad del viento (km/h) Dirección del viento Racha (km/h) Dirección de racha Precipitación (mm) Presión (hPa) Tendencia (hPa) Humedad (%)
2018-01-19 23:00:00 7.2 0 Calma 4 Nordeste 0 948.4 0.9 87
2018-01-19 22:00:00 7.5 4 Nordeste 11 Nordeste 0 948 0.9 85
2018-01-19 21:00:00 8.5 0 Calma 12 Sur 0 947.5 1.5 79
2018-01-19 20:00:00 10.9 0 Calma 12 Sudeste 0 947.5 1.4 68
2018-01-19 19:00:00 11.1 0 Calma 10 Sur 0 947.1 1.6 64
2018-01-19 18:00:00 14.4 4 Sudoeste 11 Sudoeste 0 946 0.7 51
2018-01-19 17:00:00 16.6 0 Calma 12 Sudoeste 0 946.1 1.1 46
2018-01-19 16:00:00 16.4 4 Oeste 14 Oeste 0 945.5 0.6 47
2018-01-19 15:00:00 15.5 4 Oeste 15 Oeste 0 945.3 0.5 49
2018-01-19 14:00:00 14.1 7 Sur 14 Sur 0 945 0.8 55
2018-01-19 13:00:00 12.2 0 Calma 6 Sudoeste 0 944.9 1.9 61
2018-01-19 12:00:00 10.4 0 Calma 7 Norte 0 944.8 3.1 67
2018-01-19 11:00:00 9.1 0 Calma 13 Nordeste 0 944.2 2.8 72
2018-01-19 10:00:00 6.4 5 Nordeste 13 Nordeste 0 943 1.8 92
2018-01-19 09:00:00 4.1 0 Calma 5 Nordeste 0 941.7 0.5 98
2018-01-19 08:00:00 5 0 Calma 8 Nordeste 0 941.4 0 98
2018-01-19 07:00:00 5.3 0 Calma 3 Sudeste 0 941.2 -0.2 95
2018-01-19 06:00:00 5.5 0 Calma 10 Nordeste 0 941.2 -0.5 91
2018-01-19 05:00:00 6.7 5 Nordeste 10 Nordeste 0 941.4 -0.9 91
2018-01-19 04:00:00 5.4 0 Calma 5 Nordeste 0 941.4 -1.3 93
2018-01-19 03:00:00 7.3 0 Calma 3 Nordeste 0 941.7 -1.3 87
2018-01-19 02:00:00 6.9 0 Calma 5 Nordeste 0 942.3 -0.7 85
2018-01-19 01:00:00 8.1 3 Sudeste 14 Nordeste 0 942.7 -0.7 79
2018-01-19 00:00:00 7.7 0 Calma 8 Nordeste 0 943 -1.1 79
2018-01-18 23:00:00 8.1 0 Calma 7 Sur 0 943 -1.3 78
2018-01-18 22:00:00 8.9 0 Calma -- -- 0 943.4 -1 72
2018-01-18 21:00:00 9.4 0 Calma -- -- 0 944.1 -1 69
2018-01-18 20:00:00 10.6 0 Calma 3 Sudeste 0 944.3 -1 63
2018-01-18 19:00:00 10.9 0 Calma -- -- 0 944.4 -0.6 61
2018-01-18 18:00:00 13.3 0 Calma 14 Oeste 0 945.1 0 51
2018-01-18 17:00:00 15.1 3 Oeste 14 Oeste 0 945.3 -0.8 46
2018-01-18 16:00:00 15.7 0 Calma 10 Sudoeste 0 945 -1.8 43
2018-01-18 15:00:00 15.8 0 Calma 13 Sudoeste 0 945.1 -2 43
2018-01-18 14:00:00 14.2 4 Oeste 13 Sudoeste 0 946.1 -0.5 45
2018-01-18 13:00:00 12.3 4 Sudoeste 12 Sudoeste 0 946.8 1.1 51
2018-01-18 12:00:00 10.6 0 Calma -- -- 0 947.1 2 58
2018-01-18 11:00:00 7.6 0 Calma 0 Calma 0 946.6 1.7 75
2018-01-18 10:00:00 5.1 0 Calma 0 Calma 0 945.7 1.1 87
2018-01-18 09:00:00 1.9 0 Calma 4 Nordeste 0 945.1 0.3 93
2018-01-18 08:00:00 2.3 0 Calma 5 Nordeste 0 944.9 0.2 93
2018-01-18 07:00:00 2.3 0 Calma 0 Calma 0 944.6 -1 89
2018-01-18 06:00:00 2.7 0 Calma 4 Sur 0 944.8 -0.5 85
2018-01-18 05:00:00 3.3 0 Calma 4 Nordeste 0 944.7 -1 85
2018-01-18 04:00:00 4.1 0 Calma 6 Sudeste 0 945.6 -0.4 78
2018-01-18 03:00:00 3.9 0 Calma 8 Norte 0 945.3 -1.2 79
2018-01-18 02:00:00 4.1 0 Calma 5 Sur 0 945.7 -1.1 78
2018-01-18 01:00:00 4.6 0 Calma 13 Nordeste 0 946 -1.7 79
2018-01-18 00:00:00 5.4 2 Nordeste 9 Norte 0 946.5 -1.3 77
2018-01-17 23:00:00 7.7 0 Calma 9 Nordeste 0 946.8 -1.7 68
2018-01-17 22:00:00 8.6 0 Calma 6 Nordeste 0 947.7 -0.7 63
2018-01-17 21:00:00 9.6 0 Calma 18 Nordeste 0 947.8 -0.9 59
2018-01-17 20:00:00 11 2 Nordeste 10 Nordeste 0 948.5 -0.3 47
2018-01-17 19:00:00 13.6 4 Nordeste 18 Nordeste 0 948.4 -0.4 39
2018-01-17 18:00:00 15.6 3 Este 19 Nordeste 0 948.7 0.1 37
2018-01-17 17:00:00 17.4 5 Nordeste 20 Nordeste 0 948.8 -0.1 36
2018-01-17 16:00:00 17.2 11 Nordeste 23 Nordeste 0 948.8 -0.5 41
2018-01-17 15:00:00 16.7 11 Nordeste 23 Nordeste 0 948.6 -1.2 40
2018-01-17 14:00:00 15 11 Nordeste 20 Nordeste 0 948.9 -0.4 52
2018-01-17 13:00:00 13.5 10 Nordeste 21 Nordeste 0 949.3 1.1 58
2018-01-17 12:00:00 11.4 9 Nordeste 18 Nordeste 0 949.8 2.3 65
2018-01-17 11:00:00 8.3 7 Norte 17 Nordeste 0 949.3 2 76
2018-01-17 10:00:00 4.5 8 Nordeste 13 Nordeste 0 948.2 1.2 95
2018-01-17 09:00:00 2.6 2 Nordeste 13 Nordeste 0 947.5 0.6 99
2018-01-17 08:00:00 2.3 0 Calma 19 Nordeste 0 947.3 -0.3 99
2018-01-17 07:00:00 1.6 0 Calma 8 Nordeste 0 947 -1.1 99
2018-01-17 06:00:00 2.1 0 Calma 0 Calma 0 946.9 -1.5 98
2018-01-17 05:00:00 1.9 0 Calma 8 Nordeste 0 947.6 -1 97
2018-01-17 04:00:00 2.6 3 Nordeste 10 Nordeste 0 948.1 -1 96
2018-01-17 03:00:00 3 0 Calma 10 Nordeste 0 948.4 -1.3 93
2018-01-17 02:00:00 3.6 3 Sur 12 Nordeste 0 948.6 -1.6 91
2018-01-17 01:00:00 4.3 0 Calma 4 Nordeste 0 949.1 -1.4 88
2018-01-17 00:00:00 4.9 0 Calma -- -- 0 949.7 -1 82
2018-01-16 23:00:00 5.4 0 Calma 0 Calma 0 950.2 -1.3 77
2018-01-16 22:00:00 6.6 0 Calma -- -- 0 950.5 -0.9 73
2018-01-16 21:00:00 7.1 0 Calma -- -- 0 950.7 -1.1 68
2018-01-16 20:00:00 8.4 0 Calma 8 Sur 0 951.5 -0.7 60
2018-01-16 19:00:00 9.6 2 Sudeste 9 Sur 0 951.4 -0.9 53
2018-01-16 18:00:00 13.6 0 Calma 11 Sudoeste 0 951.8 -0.9 41
2018-01-16 17:00:00 14.1 7 Oeste 18 Oeste 0 952.2 -1.2 38
2018-01-16 16:00:00 13.8 12 Sudoeste 32 Sudoeste 0 952.3 -1.8 38
2018-01-16 15:00:00 13.8 8 Sudoeste 19 Oeste 0 952.7 -1.1 40
2018-01-16 14:00:00 12 6 Sudoeste 14 Sudoeste 0 953.4 0.1 46
2018-01-16 13:00:00 10.2 0 Calma 4 Norte 0 954.1 2 60
2018-01-16 12:00:00 7.7 0 Calma -- -- 0 953.8 2.1 76
2018-01-16 11:00:00 4.7 0 Calma -- -- 0 953.3 2.2 94
2018-01-16 10:00:00 2.6 0 Calma 6 Sudoeste 0 952.1 1.5 99
2018-01-16 09:00:00 0 0 Calma 6 Nordeste 0 951.7 0.8 99
2018-01-16 08:00:00 0.4 0 Calma -- -- 0 951.1 0.5 99
2018-01-16 07:00:00 0.4 0 Calma 5 Norte 0 950.6 -0.6 99
2018-01-16 06:00:00 0.3 0 Calma 8 Nordeste 0 950.9 -0.5 99
2018-01-16 05:00:00 1.2 5 Nordeste 7 Nordeste 0 950.6 -0.9 99
2018-01-16 04:00:00 1.1 0 Calma 6 Norte 0 951.2 -0.2 99
2018-01-16 03:00:00 1.7 0 Calma 5 Norte 0 951.4 -0.5 98
2018-01-16 02:00:00 1.9 0 Calma -- -- 0 951.5 0 97
2018-01-16 01:00:00 2.3 0 Calma -- -- 0 951.4 -0.4 96
2018-01-16 00:00:00 2.5 0 Calma -- -- 0 951.9 0.7 93
2018-01-15 23:00:00 4.1 0 Calma 4 Nordeste 0 951.5 0.4 89
2018-01-15 22:00:00 4.6 0 Calma 0 Calma 0 951.8 1.6 85
2018-01-15 21:00:00 5.2 0 Calma 7 Este 0 951.2 1 80
2018-01-15 20:00:00 5.9 3 Nordeste 11 Norte 0 951.1 1 76
2018-01-15 19:00:00 8 5 Sudeste 10 Sudeste 0 950.2 1 61
2018-01-15 18:00:00 10.8 0 Calma 9 Oeste 0 950.2 1.3 50
2018-01-15 17:00:00 12.3 0 Calma 8 Norte 0 950.1 1.2 47
2018-01-15 16:00:00 11.6 0 Calma 12 Norte 0 949.2 0.1 52
2018-01-15 15:00:00 10.7 6 Nordeste 15 Nordeste 0 948.9 0.6 53
2018-01-15 14:00:00 10.3 3 Este 11 Este 0 948.9 1.2 59
2018-01-15 13:00:00 8.6 6 Nordeste 14 Este 0 949.1 2.6 68
2018-01-15 12:00:00 6.8 2 Norte 10 Norte 0 948.3 2.5 80
2018-01-15 11:00:00 5.4 2 Nordeste 10 Nordeste 0 947.7 2.4 91
2018-01-15 10:00:00 3.6 0 Calma 0 Calma 0 946.5 1.8 99
2018-01-15 09:00:00 2.7 0 Calma 2 Nordeste 0 945.8 1.2 99
2018-01-15 08:00:00 2.7 0 Calma -- -- 0 945.3 1.6 99
2018-01-15 07:00:00 3.5 0 Calma 0 Calma 0 944.7 1.3 99
2018-01-15 06:00:00 3.7 0 Calma -- -- 0 944.6 0.9 99
2018-01-15 05:00:00 3.7 0 Calma -- -- 0 943.7 0.3 99
2018-01-15 04:00:00 3.9 0 Calma 7 Sudeste 0 943.4 -0.4 99
2018-01-15 03:00:00 3.8 0 Calma -- -- 0 943.7 0.1 99
2018-01-15 02:00:00 3.8 0 Calma 0 Calma 0 943.4 0.4 99
2018-01-15 01:00:00 4.3 0 Calma 0 Calma 0 943.8 1.3 99
2018-01-15 00:00:00 4.5 0 Calma 0 Calma 0.1 943.6 1.7 99
2018-01-14 23:00:00 4.4 0 Calma -- -- 0.9 943 1.7 99
2018-01-14 22:00:00 4.3 0 Calma -- -- 0.4 942.5 1.9 99
2018-01-14 21:00:00 4.3 0 Calma -- -- 0 941.9 1.4 99
2018-01-14 20:00:00 4.4 0 Calma -- -- 0 941.3 0.6 98
2018-01-14 19:00:00 4.7 0 Calma 2 Este 0.3 940.6 0.3 96
2018-01-14 18:00:00 4.4 0 Calma 8 Sudeste 1.9 940.5 0.3 94
2018-01-14 17:00:00 5.2 0 Calma 4 Este 3 940.7 0.2 94
2018-01-14 16:00:00 5.9 0 Calma 9 Norte 0.3 940.3 -1.1 92
2018-01-14 15:00:00 6.8 0 Calma 12 Sudoeste 0 940.2 -2.3 79
2018-01-14 14:00:00 7.3 0 Calma 14 Sudoeste 0 940.5 -2 78
2018-01-14 13:00:00 7.5 3 Sudoeste 15 Sudoeste 0 941.4 -0.7 83
2018-01-14 12:00:00 7.2 9 Oeste 13 Oeste 0 942.5 0.7 90
2018-01-14 11:00:00 6.6 7 Sudoeste 15 Sudoeste 0 942.5 0.8 93
2018-01-14 10:00:00 6.1 0 Calma -- -- 0 942.1 0.6 98
2018-01-14 09:00:00 5.4 0 Calma -- -- 0 941.8 0.4 99
2018-01-14 08:00:00 5.2 6 Sur 10 Sudoeste 0 941.7 -0.6 99
2018-01-14 07:00:00 5.2 7 Sudoeste 19 Sudoeste 0 941.5 -1.2 99
2018-01-14 06:00:00 5.2 12 Sudoeste 21 Sur 0 941.4 -1.3 99
2018-01-14 05:00:00 5.5 14 Sudoeste 22 Sudoeste 0 942.3 -0.6 99
2018-01-14 04:00:00 5.8 13 Sudoeste 21 Sudoeste 0 942.7 -0.9 99
2018-01-14 03:00:00 5.8 11 Sudoeste 19 Sudoeste 0 942.7 -0.9 99
2018-01-14 02:00:00 5.9 12 Sudoeste 23 Sudoeste 0.6 942.9 -0.5 99
2018-01-14 01:00:00 6.1 14 Sudoeste 25 Sudoeste 0 943.6 0.3 99
2018-01-14 00:00:00 6.3 14 Sudoeste 24 Sudoeste 0 943.6 0.8 99
2018-01-13 23:00:00 6.3 14 Sudoeste 24 Sudoeste 0.1 943.4 0.8 99
2018-01-13 22:00:00 6.7 11 Sudoeste 20 Sudoeste 0 943.3 1.5 99
2018-01-13 21:00:00 6.5 8 Sudoeste 19 Sudoeste 0 942.8 1.6 99
2018-01-13 20:00:00 5.9 0 Calma 6 Sur 0.3 942.6 0.7 97
2018-01-13 19:00:00 6 0 Calma 10 Sudoeste 0 941.8 -1 96
2018-01-13 18:00:00 6.1 0 Calma 23 Sudoeste 0 941.2 -1.9 91
2018-01-13 17:00:00 6.4 12 Sudoeste 27 Sudoeste 0.8 941.9 -0.8 92
2018-01-13 16:00:00 7.7 17 Sudoeste 28 Sudoeste 0 942.8 0.3 74
2018-01-13 15:00:00 9.8 13 Sudoeste 31 Sudoeste 0 943.1 0.4 57
2018-01-13 14:00:00 9.6 9 Sudoeste 20 Sudoeste 0 942.7 0 57
2018-01-13 13:00:00 6.8 0 Calma -- -- 0 942.5 0.6 68
2018-01-13 12:00:00 6 0 Calma -- -- 0 942.7 0.9 75
2018-01-13 11:00:00 4.8 0 Calma 9 Norte 0 942.7 0.9 80
2018-01-13 10:00:00 2.1 0 Calma -- -- 0 941.9 0.4 94
2018-01-13 09:00:00 1.6 0 Calma -- -- 0 941.8 0.2 92
2018-01-13 08:00:00 1.7 0 Calma -- -- 0 941.8 -0.4 90
2018-01-13 07:00:00 2.7 0 Calma 12 Nordeste 0 941.5 -1.3 86
2018-01-13 06:00:00 2.3 0 Calma 9 Nordeste 0 941.6 -1.7 90
2018-01-13 05:00:00 2.3 0 Calma 10 Nordeste 0 942.2 -2.1 93
2018-01-13 04:00:00 2.5 0 Calma -- -- 0 942.8 -1.8 91
2018-01-13 03:00:00 2.9 0 Calma 0 Calma 0 943.3 -1.9 87
2018-01-13 02:00:00 3.2 0 Calma -- -- 0 944.3 -1.5 85
2018-01-13 01:00:00 3.7 0 Calma -- -- 0 944.6 -2.3 83
2018-01-13 00:00:00 4.4 0 Calma -- -- 0 945.2 -1.3 81
2018-01-12 23:00:00 4.4 0 Calma -- -- 0 945.8 -0.9 79
2018-01-12 22:00:00 5.3 0 Calma 2 Oeste 0 946.9 -0.2 74
2018-01-12 21:00:00 6.4 0 Calma -- -- 0 946.5 -1.5 68
2018-01-12 20:00:00 7 0 Calma -- -- 0 946.7 -1 63
2018-01-12 19:00:00 8.8 4 Este 12 Este 0 947.1 -0.4 53
2018-01-12 18:00:00 9.1 3 Sudeste 8 Sudeste 0 948 0.3 52
2018-01-12 17:00:00 11.3 0 Calma 11 Nordeste 0 947.7 -1.1 45
2018-01-12 16:00:00 10.5 3 Nordeste 9 Norte 0 947.5 -1.7 46
2018-01-12 15:00:00 10 0 Calma 4 Norte 0 947.7 -1.5 51
2018-01-12 14:00:00 9.1 0 Calma 7 Oeste 0 948.8 -0.1 55
2018-01-12 13:00:00 8.3 0 Calma 0 Calma 0 949.2 1.3 66
2018-01-12 12:00:00 5 0 Calma 5 Nordeste 0 949.2 2.1 89
2018-01-12 11:00:00 2.9 0 Calma 2 Nordeste 0 948.9 1.4 99
2018-01-12 10:00:00 1.3 0 Calma 0 Calma 0 947.9 0.9 99
2018-01-12 09:00:00 -1.5 0 Calma -- -- 0 947.1 0.2 99
2018-01-12 08:00:00 -0.6 0 Calma -- -- 0 947.5 -0.2 99
2018-01-12 07:00:00 -0.4 0 Calma -- -- 0 947 -0.7 99
2018-01-12 06:00:00 0.1 0 Calma -- -- 0 946.9 -0.8 99
2018-01-12 05:00:00 0.6 0 Calma -- -- 0 947.7 0 99
2018-01-12 04:00:00 1.2 0 Calma 3 Sur 0 947.7 -0.4 99
2018-01-12 03:00:00 1.3 0 Calma 0 Calma 0 947.7 -0.7 99
2018-01-12 02:00:00 2.4 0 Calma 0 Calma 0 947.7 -0.8 98
2018-01-12 01:00:00 2.7 0 Calma 2 Nordeste 0 948.1 0.1 97
2018-01-12 00:00:00 3.9 0 Calma -- -- 0 948.4 0.4 94
2018-01-11 23:00:00 4.7 0 Calma 5 Sur 0 948.5 -0.2 88
2018-01-11 22:00:00 5.3 0 Calma 0 Calma 0 948 0.5 89
2018-01-11 21:00:00 5.9 0 Calma 8 Sur 0 948 0.7 82
2018-01-11 20:00:00 6 0 Calma 10 Sur 0 948.7 2 82
2018-01-11 19:00:00 7.1 6 Sur 17 Sudoeste 0 947.5 1.2 72
2018-01-11 18:00:00 8.3 8 Sudoeste 19 Sudoeste 0 947.3 1.5 78
2018-01-11 17:00:00 8.6 6 Sudoeste 18 Sudoeste 0 946.7 0.6 73
2018-01-11 16:00:00 8.5 11 Sudoeste 22 Sur 0 946.3 -0.5 77
2018-01-11 15:00:00 6.6 6 Sur 33 Noroeste 0.7 945.8 -1.9 88
2018-01-11 14:00:00 6.6 6 Oeste 32 Sudoeste 0.5 946.1 -1.8 92
2018-01-11 13:00:00 7.3 15 Oeste 36 Oeste 0 946.8 0 88
2018-01-11 12:00:00 6.4 14 Sudoeste 29 Sudoeste 0 947.7 1.1 91
2018-01-11 11:00:00 5.8 19 Sudoeste 35 Sudoeste 0 947.9 1.5 89
2018-01-11 10:00:00 5.6 17 Sudoeste 35 Sudoeste 0 946.8 0.6 89
2018-01-11 09:00:00 5.6 21 Sudoeste 35 Sudoeste 0 946.6 -0.4 88
2018-01-11 08:00:00 5.6 15 Sudoeste 26 Sudoeste 0 946.4 -0.4 89
2018-01-11 07:00:00 5.6 19 Sudoeste 30 Sudoeste 0 946.2 -0.5 89
2018-01-11 06:00:00 5.5 15 Sudoeste 24 Sudoeste 0 947 0.3 91
2018-01-11 05:00:00 6.3 16 Sudoeste 26 Sudoeste 0 946.8 0.4 93
2018-01-11 04:00:00 6.9 14 Sudoeste 25 Sudoeste 0 946.7 -0.1 88
2018-01-11 03:00:00 7.4 11 Sudoeste 22 Sudoeste 0 946.7 0.1 89
2018-01-11 02:00:00 7.7 11 Sudoeste 19 Sudoeste 0 946.4 0.3 94
2018-01-11 01:00:00 8.3 8 Sudoeste 25 Sudoeste 0 946.8 1.8 76
2018-01-11 00:00:00 8.1 7 Sudoeste 27 Sudoeste 0 946.6 2 81
2018-01-10 23:00:00 8.2 14 Sudoeste 22 Sudoeste 0 946.1 1.7 95
2018-01-10 22:00:00 8.9 11 Sudoeste 34 Sudoeste 2 945 0 98
2018-01-10 21:00:00 9 14 Sudoeste 36 Sudoeste 0.9 944.6 -0.4 94
2018-01-10 20:00:00 9.9 21 Sudoeste 39 Sudoeste 0.1 944.4 -1 81
2018-01-10 19:00:00 9.8 23 Sudoeste 37 Sudoeste 0 945 -0.8 77
2018-01-10 18:00:00 10 15 Sudoeste 30 Sur 0 945 0 73
2018-01-10 17:00:00 9.7 14 Sudoeste 30 Sudoeste 0 945.4 0.3 77
2018-01-10 16:00:00 10 20 Sudoeste 34 Sudoeste 0 945.8 0.7 77
2018-01-10 15:00:00 10.1 23 Sudoeste 36 Sudoeste 0 945 -0.1 79
2018-01-10 14:00:00 8.7 21 Sudoeste 32 Sudoeste 0 945.1 -0.1 93
2018-01-10 13:00:00 7.7 18 Sudoeste 32 Sudoeste 0 945.1 0.6 99
2018-01-10 12:00:00 7.7 17 Sudoeste 27 Sudoeste 0 945.1 2.1 99
2018-01-10 11:00:00 7.6 17 Sudoeste 27 Oeste 0 945.2 2.8 99
2018-01-10 10:00:00 8 16 Sudoeste 25 Sudoeste 0 944.5 3.2 99
2018-01-10 09:00:00 7.4 0 Calma 12 Sur 0 943 2.3 99
2018-01-10 08:00:00 6.9 0 Calma 0 Calma 0 942.4 2.2 99
2018-01-10 07:00:00 7.5 0 Calma 8 Sur 0.1 941.3 0.7 99
2018-01-10 06:00:00 6.2 0 Calma 0 Calma 0.1 940.7 0.5 99
2018-01-10 05:00:00 6.4 0 Calma -- -- 0.3 940.2 -0.1 99
2018-01-10 04:00:00 6.3 0 Calma 0 Calma 0.1 940.6 -0.8 99
2018-01-10 03:00:00 6 0 Calma 0 Calma 0.3 940.2 -1.6 99
2018-01-10 02:00:00 5.8 0 Calma 7 Sur 0 940.3 -1.5 99
2018-01-10 01:00:00 5.8 0 Calma 5 Nordeste 0.1 941.4 -0.7 98
2018-01-10 00:00:00 5.8 0 Calma -- -- 0.3 941.8 -0.6 97
2018-01-09 23:00:00 5.8 0 Calma 4 Nordeste 0.1 941.8 -0.8 93
2018-01-09 22:00:00 6.3 0 Calma 5 Nordeste 0.1 942.1 -0.7 85
2018-01-09 21:00:00 6.5 0 Calma 5 Sur 0 942.4 -0.4 80
2018-01-09 20:00:00 6.7 0 Calma 8 Sudoeste 0 942.6 -0.1 76
2018-01-09 19:00:00 7.6 6 Sur 22 Sur 0 942.8 -0.1 69
2018-01-09 18:00:00 6.9 5 Sur 10 Sur 0 942.8 0 76
2018-01-09 17:00:00 6.8 0 Calma 10 Sudoeste 0 942.7 -0.3 80
2018-01-09 16:00:00 6.4 5 Sudoeste 14 Oeste 0 942.9 -0.3 82
2018-01-09 15:00:00 6.3 8 Sudoeste 18 Oeste 0 942.8 -0.4 81
2018-01-09 14:00:00 6.2 8 Sudoeste 18 Sudoeste 0 943 0.4 82
2018-01-09 13:00:00 5.8 0 Calma 12 Sudoeste 0 943.2 1.5 87
2018-01-09 12:00:00 3.6 0 Calma -- -- 0 943.2 2 91
2018-01-09 11:00:00 2.4 0 Calma -- -- 0 942.6 2.2 97
2018-01-09 10:00:00 0.7 0 Calma 5 Noroeste 0 941.7 2.4 99
2018-01-09 09:00:00 -0.6 0 Calma -- -- 0 941.2 2 99
2018-01-09 08:00:00 0.1 0 Calma 7 Nordeste 0 940.4 1.6 99
2018-01-09 07:00:00 -0.1 0 Calma 0 Calma 0 939.3 0.4 99
2018-01-09 06:00:00 0 0 Calma -- -- 0 939.2 0.8 99
2018-01-09 05:00:00 0.3 0 Calma -- -- 0 938.8 0.7 99
2018-01-09 04:00:00 0.7 0 Calma 0 Calma 0 938.9 0.7 97
2018-01-09 03:00:00 1.4 0 Calma -- -- 0 938.4 0.5 96
2018-01-09 02:00:00 2.3 0 Calma -- -- 0 938.1 0.5 94
2018-01-09 01:00:00 3.1 0 Calma -- -- 0 938.2 1.2 90
2018-01-09 00:00:00 3.4 0 Calma -- -- 0 937.9 0.8 88
2018-01-08 23:00:00 4.1 0 Calma 0 Calma 0 937.6 1 82
2018-01-08 22:00:00 5.2 0 Calma 0 Calma 0 937 1.3 78
2018-01-08 21:00:00 5.8 0 Calma 4 Norte 0 937.1 1.7 70
2018-01-08 20:00:00 6.7 0 Calma -- -- 0 936.6 1.1 64
2018-01-08 19:00:00 6.7 0 Calma 4 Sudeste 0 935.7 1 61
2018-01-08 18:00:00 8.7 0 Calma -- -- 0 935.4 1 53
2018-01-08 17:00:00 10.2 0 Calma 7 Sudoeste 0 935.5 1.5 46
2018-01-08 16:00:00 10.6 0 Calma 11 Noroeste 0 934.7 0.7 46
2018-01-08 15:00:00 9.8 0 Calma 11 Noroeste 0 934.4 0.7 50
2018-01-08 14:00:00 9.7 0 Calma 8 Oeste 0 934 1.2 54
2018-01-08 13:00:00 9.3 0 Calma 10 Norte 0 934 2 57
2018-01-08 12:00:00 6.7 5 Norte 13 Norte 0 933.7 2.1 65
2018-01-08 11:00:00 4.7 4 Nordeste 9 Norte 0 932.8 1.9 86
2018-01-08 10:00:00 1.9 3 Nordeste 6 Nordeste 0 932 1.7 99
2018-01-08 09:00:00 0.8 0 Calma 8 Nordeste 0 931.6 1.5 99
2018-01-08 08:00:00 0.8 5 Nordeste 7 Nordeste 0 930.9 1.1 98
2018-01-08 07:00:00 0.7 0 Calma -- -- 0 930.3 0.9 97
2018-01-08 06:00:00 1.5 0 Calma -- -- 0 930.1 0.9 95
2018-01-08 05:00:00 1.6 0 Calma 8 Este 0 929.8 0.9 93
2018-01-08 04:00:00 2.9 7 Nordeste 8 Nordeste 0 929.4 0.5 94
2018-01-08 03:00:00 3.3 0 Calma -- -- 0 929.2 0.3 94
2018-01-08 02:00:00 3.4 0 Calma -- -- 0 928.9 0 94
2018-01-08 01:00:00 3.5 0 Calma 5 Nordeste 0 928.9 0.2 93
2018-01-08 00:00:00 3.9 0 Calma 7 Nordeste 0 928.9 0.5 88
2018-01-07 23:00:00 3.9 0 Calma -- -- 0 928.9 0.9 88
2018-01-07 22:00:00 4.1 0 Calma 5 Oeste 0 928.7 1.5 85
2018-01-07 21:00:00 4.1 3 Sudoeste 7 Sur 0 928.4 1.7 83
2018-01-07 20:00:00 4.2 0 Calma 10 Sudoeste 0 928 2.2 82
2018-01-07 19:00:00 4.3 6 Sur 10 Sudoeste 0 927.2 1.6 81
2018-01-07 18:00:00 5 6 Sudoeste 12 Sudoeste 0 926.7 1.5 72
2018-01-07 17:00:00 6 7 Sudoeste 15 Oeste 0 925.8 1 63
2018-01-07 16:00:00 8.2 10 Sudoeste 21 Oeste 0 925.6 1.1 49
2018-01-07 15:00:00 7.9 10 Oeste 19 Oeste 0 925.2 0.4 52
2018-01-07 14:00:00 7 8 Sudoeste 17 Sudoeste 0 924.8 0 58
2018-01-07 13:00:00 6 9 Sudoeste 17 Sudoeste 0 924.5 0.5 65
2018-01-07 12:00:00 4.3 8 Sudoeste 19 Oeste 0 924.8 1.6 73
2018-01-07 11:00:00 4.2 14 Sudoeste 26 Sudoeste 0 924.8 2.4 76
2018-01-07 10:00:00 2.8 16 Sudoeste 25 Sudoeste 0 924 1.9 79
2018-01-07 09:00:00 2.9 13 Sudoeste 21 Oeste 0 923.2 0.7 79
2018-01-07 08:00:00 2.8 9 Sudoeste 26 Sudoeste 0 922.4 0 80
2018-01-07 07:00:00 2.8 12 Sudoeste 32 Sudoeste 0 922.1 -0.4 81
2018-01-07 06:00:00 3.2 17 Sudoeste 34 Oeste 0 922.5 0.2 79
2018-01-07 05:00:00 3.5 15 Sudoeste 32 Sudoeste 0 922.4 0.1 79
2018-01-07 04:00:00 3.7 20 Sudoeste 32 Sudoeste 0 922.5 -0.1 78
2018-01-07 03:00:00 4.1 17 Sudoeste 28 Sudoeste 0 922.3 -0.3 81
2018-01-07 02:00:00 4.4 19 Sudoeste 32 Sudoeste 0 922.3 -0.4 84
2018-01-07 01:00:00 4.4 18 Sudoeste 33 Sudoeste 0 922.6 0.4 91
2018-01-07 00:00:00 4.5 16 Sudoeste 29 Sudoeste 0 922.6 -0.1 93
2018-01-06 23:00:00 4.8 14 Sudoeste 27 Sudoeste 0 922.7 0.2 96
2018-01-06 22:00:00 4.9 14 Sudoeste 24 Sudoeste 0 922.2 -0.1 99
2018-01-06 21:00:00 4.4 10 Sudoeste 19 Sudoeste 0 922.7 0.6 99
2018-01-06 20:00:00 3.4 5 Sur 10 Sur 0 922.5 0.8 99
2018-01-06 19:00:00 3 5 Sudoeste 13 Sudoeste 0 922.3 1.1 99
2018-01-06 18:00:00 2.4 8 Sudoeste 19 Sudoeste 0.4 922.1 1.6 99
2018-01-06 17:00:00 1.6 10 Sudoeste 17 Sudoeste 1.7 921.7 1.6 99
2018-01-06 16:00:00 1.4 12 Sudoeste 42 Sudoeste 2.4 921.2 0.6 99
2018-01-06 15:00:00 4.4 21 Sudoeste 35 Sudoeste 1.8 920.5 -1.2 99
2018-01-06 14:00:00 5.8 18 Sudoeste 29 Sudoeste 2.2 920.1 -1.7 99
2018-01-06 13:00:00 7.7 7 Sudoeste 12 Oeste 0.1 920.6 -1.4 90
2018-01-06 12:00:00 8.7 0 Calma 6 Oeste 0 921.7 -0.9 81
2018-01-06 11:00:00 8.6 0 Calma 8 Sudoeste 0 921.8 -1.3 82
2018-01-06 10:00:00 8 6 Sudoeste 17 Sudoeste 0 922 -1.2 86
2018-01-06 09:00:00 8.3 0 Calma 23 Sudoeste 0 922.6 -1.1 86
2018-01-06 08:00:00 9.5 18 Sudoeste 33 Sudoeste 0 923.1 -1.8 69
2018-01-06 07:00:00 10 0 Calma 10 Sudoeste 0 923.2 -2.6 64
2018-01-06 06:00:00 10 0 Calma 13 Sudeste 0 923.7 -3 65
2018-01-06 05:00:00 9.8 0 Calma 4 Sudoeste 0 924.9 -3.7 69
2018-01-06 04:00:00 10.9 0 Calma 5 Sur 0 925.8 -4.3 65
2018-01-06 03:00:00 10.3 0 Calma 6 Norte 0 926.7 -4.9 67
2018-01-06 02:00:00 10 0 Calma 10 Sur 0 928.6 -3.9 65
2018-01-06 01:00:00 10.8 0 Calma 17 Sur 0 930.1 -3 62
2018-01-06 00:00:00 11.1 10 Sur 27 Sur 0 931.6 -1.8 60
2018-01-05 23:00:00 11.6 17 Sur 29 Sudoeste 0 932.5 -1.6 58
2018-01-05 22:00:00 11.9 15 Sur 35 Sudoeste 0 933.1 -2 58
2018-01-05 21:00:00 11.8 16 Sudoeste 33 Sudoeste 0 933.4 -2.5 61
2018-01-05 20:00:00 11.2 9 Sur 15 Sur 0 934.1 -2.8 65
2018-01-05 19:00:00 10.5 0 Calma 21 Sur 0 935.1 -2.6 72
2018-01-05 18:00:00 11.2 10 Sur 23 Sur 0 935.9 -2.9 68
2018-01-05 17:00:00 11.6 7 Sudoeste 28 Sudoeste 0 936.9 -2.5 66
2018-01-05 16:00:00 11.8 14 Sudoeste 28 Sudoeste 0 937.7 -3.1 64
2018-01-05 15:00:00 11.1 17 Sudoeste 40 Sudoeste 0 938.8 -3.4 71
2018-01-05 14:00:00 10.8 21 Sudoeste 33 Sudoeste 0 939.4 -3.3 71
2018-01-05 13:00:00 11.3 15 Sudoeste 33 Sudoeste 0 940.8 -1.9 69
2018-01-05 12:00:00 11 16 Sudoeste 35 Sudoeste 0 942.2 -0.5 71
2018-01-05 11:00:00 11 19 Sudoeste 33 Sudoeste 0 942.7 -0.3 70
2018-01-05 10:00:00 10.3 14 Sudoeste 26 Sudoeste 0 942.7 -0.5 84
2018-01-05 09:00:00 9.7 8 Sudoeste 19 Sudoeste 0 942.7 -1 96
2018-01-05 08:00:00 9.7 9 Sudoeste 17 Sudoeste 0 943 -1.9 99
2018-01-05 07:00:00 9.7 6 Sudoeste 13 Oeste 0 943.2 -2.3 97
2018-01-05 06:00:00 10.1 9 Oeste 19 Sur 0 943.7 -2.4 93
2018-01-05 05:00:00 10 0 Calma 16 Sudoeste 0 944.9 -2 96
2018-01-05 04:00:00 10.1 8 Sudoeste 13 Sudoeste 0 945.5 -2.6 97
2018-01-05 03:00:00 9.9 3 Sudoeste 8 Sudoeste 0 946.1 -2.8 99
2018-01-05 02:00:00 9.9 4 Sur 10 Sudeste 0 946.9 -2.6 99
2018-01-05 01:00:00 9.8 0 Calma 5 Sur 0 948.1 -1.8 99
2018-01-05 00:00:00 9.9 3 Sur 10 Sur 0 948.9 -1.6 99
2018-01-04 23:00:00 9.8 4 Sur 11 Sudoeste 0 949.5 -1.4 99
2018-01-04 22:00:00 9.6 5 Sudoeste 8 Sudoeste 0 949.9 -0.3 97
2018-01-04 21:00:00 10.2 2 Sudoeste 17 Sur 0 950.5 0.1 97
2018-01-04 20:00:00 10 9 Sudoeste 21 Sudoeste 0 950.9 0.1 94
2018-01-04 19:00:00 10.7 6 Oeste 12 Oeste 0 950.2 -1.4 90
2018-01-04 18:00:00 11.1 2 Oeste 10 Oeste 0 950.4 -1.7 86
2018-01-04 17:00:00 12.1 5 Sudoeste 18 Sur 0 950.8 -1.9 82
2018-01-04 16:00:00 11.1 10 Sur 15 Sudeste 0 951.6 -1.9 85
2018-01-04 15:00:00 10.9 3 Sur 10 Oeste 0 952.1 -2 84
2018-01-04 14:00:00 10.9 5 Noroeste 10 Noroeste 0 952.7 -1.3 86
2018-01-04 13:00:00 10.5 0 Calma 7 Noroeste 0 953.5 -0.3 90
2018-01-04 12:00:00 10.1 0 Calma -- -- 0 954.1 0.4 93
2018-01-04 11:00:00 9.5 0 Calma 5 Nordeste 0 954 0.4 97
2018-01-04 10:00:00 9.2 0 Calma -- -- 0 953.8 0.5 99
2018-01-04 09:00:00 9.3 0 Calma -- -- 0 953.7 -0.2 99
2018-01-04 08:00:00 9.3 0 Calma -- -- 0 953.6 -0.6 99
2018-01-04 07:00:00 9.3 0 Calma -- -- 0 953.3 -1.4 99
2018-01-04 06:00:00 9.4 0 Calma -- -- 0 953.9 -0.9 99
2018-01-04 05:00:00 9.8 0 Calma -- -- 0 954.2 -1 98
2018-01-04 04:00:00 9.7 2 Sur 7 Sudeste 0 954.7 -1.5 98
2018-01-04 03:00:00 9.8 3 Sudeste 9 Nordeste 0 954.8 -2 98
2018-01-04 02:00:00 9.6 6 Nordeste 9 Nordeste 0 955.2 -1.2 97
2018-01-04 01:00:00 10.1 7 Sudeste 12 Sudeste 0 956.2 0.5 95
2018-01-04 00:00:00 9.9 0 Calma -- -- 0 956.8 0.9 95
2018-01-03 23:00:00 9.8 0 Calma 8 Sudoeste 0 956.4 0.6 95
2018-01-03 22:00:00 9.9 6 Sudoeste 11 Sudoeste 0 955.7 -0.5 95
2018-01-03 21:00:00 9.8 0 Calma 9 Sudoeste 0 955.9 -0.2 94
2018-01-03 20:00:00 10.6 6 Sur 11 Sur 0 955.8 -0.6 91
2018-01-03 19:00:00 10.4 8 Sudoeste 21 Sudoeste 0 956.2 -0.9 89
2018-01-03 18:00:00 13.2 6 Sudoeste 11 Sudoeste 0 956.1 -1.1 69
2018-01-03 17:00:00 15.9 3 Noroeste 8 Oeste 0 956.4 -0.6 59
2018-01-03 16:00:00 15.4 5 Oeste 11 Oeste 0 957.1 -0.9 59
2018-01-03 15:00:00 15 0 Calma 16 Oeste 0 957.2 -1.2 62
2018-01-03 14:00:00 14.1 6 Oeste 11 Oeste 0 957 -1.2 66
2018-01-03 13:00:00 13 3 Noroeste 10 Noroeste 0 958 0.4 70
2018-01-03 12:00:00 10.2 3 Noroeste 13 Nordeste 0 958.4 1.4 83
2018-01-03 11:00:00 9.7 10 Sudeste 16 Sudeste 0 958.2 1.5 89
2018-01-03 10:00:00 6.7 0 Calma 8 Nordeste 0 957.6 1.1 99
2018-01-03 09:00:00 5.9 0 Calma 4 Sur 0 957 1.2 99
2018-01-03 08:00:00 5.8 0 Calma 6 Norte 0 956.7 1 99
2018-01-03 07:00:00 5.5 6 Nordeste 10 Sur 0 956.5 0.7 99
2018-01-03 06:00:00 5.4 0 Calma 6 Noroeste 0 955.8 -0.2 99
2018-01-03 05:00:00 5.3 3 Sur 5 Sur 0 955.7 -0.2 99
2018-01-03 04:00:00 5.2 0 Calma 5 Nordeste 0 955.8 -0.9 99
2018-01-03 03:00:00 4.8 0 Calma 6 Norte 0 956 -1.1 99
2018-01-03 02:00:00 4.7 4 Sur 10 Nordeste 0 955.9 -1.3 99
2018-01-03 01:00:00 4.9 0 Calma -- -- 0 956.7 0.2 97
2018-01-03 00:00:00 5.7 0 Calma 9 Sudeste 0 957.1 0.4 95
2018-01-02 23:00:00 5.9 0 Calma 6 Nordeste 0 957.2 0.4 95
2018-01-02 22:00:00 6.1 4 Nordeste 9 Nordeste 0 956.5 -0.4 94
2018-01-02 21:00:00 6.7 0 Calma 11 Sudoeste 0 956.7 -0.4 88
2018-01-02 20:00:00 7.8 3 Sur 13 Sudeste 0 956.8 -0.6 82
2018-01-02 19:00:00 8.6 8 Sur 14 Sudeste 0 956.9 -0.7 80
2018-01-02 18:00:00 10.4 6 Sur 9 Oeste 0 957.1 -0.3 68
2018-01-02 17:00:00 12.2 5 Oeste 15 Sudoeste 0 957.4 -0.5 61
2018-01-02 16:00:00 12.2 6 Oeste 15 Noroeste 0 957.6 -0.2 61
2018-01-02 15:00:00 11.8 6 Sudoeste 18 Sudoeste 0 957.4 -1.3 62
2018-01-02 14:00:00 11 10 Oeste 21 Sudoeste 0 957.9 -0.6 65
2018-01-02 13:00:00 9.5 11 Sur 19 Sur 0 957.8 -0.1 74
2018-01-02 12:00:00 8.4 0 Calma 9 Oeste 0 958.7 2.1 85
2018-01-02 11:00:00 8.3 3 Oeste 8 Sur 0 958.5 2.3 86
2018-01-02 10:00:00 6.9 0 Calma 10 Sur 0 957.9 2 91
2018-01-02 09:00:00 7.6 7 Sur 11 Sur 0 956.6 1.4 87
2018-01-02 08:00:00 6.7 3 Sur 10 Sudeste 0 956.2 0.4 88
2018-01-02 07:00:00 5.9 2 Sudoeste 12 Sur 0 955.9 -0.5 86
2018-01-02 06:00:00 6 3 Sur 12 Sur 0 955.2 -1.5 88
2018-01-02 05:00:00 5.9 5 Sudoeste 11 Sur 0 955.8 -0.7 82
2018-01-02 04:00:00 7.1 0 Calma 13 Sudoeste 0 956.4 -0.4 77
2018-01-02 03:00:00 7.3 0 Calma 10 Sur 0 956.7 -0.3 77
2018-01-02 02:00:00 7.7 0 Calma -- -- 0 956.5 -0.2 77
2018-01-02 01:00:00 6.6 0 Calma -- -- 0 956.8 0 79
2018-01-02 00:00:00 7 0 Calma -- -- 0 957 0.1 76
2018-01-01 23:00:00 6.7 0 Calma -- -- 0 956.7 -0.5 76
2018-01-01 22:00:00 8.1 0 Calma 14 Sudeste 0 956.8 0.6 68
2018-01-01 21:00:00 8.2 0 Calma 12 Sudeste 0 956.9 0.3 59
2018-01-01 20:00:00 8.5 0 Calma -- -- 0 957.2 0.6 49
2018-01-01 19:00:00 9.1 0 Calma 11 Sur 0 956.2 -0.5 46
2018-01-01 18:00:00 11 0 Calma 22 Sudoeste 0 956.6 0.1 43
2018-01-01 17:00:00 13.2 3 Sudoeste 26 Sudoeste 0 956.6 0.1 39
2018-01-01 16:00:00 13.8 5 Sudoeste 24 Sudoeste 0 956.7 0.2 37
2018-01-01 15:00:00 13.3 0 Calma 15 Sudoeste 0 956.5 -0.6 46
2018-01-01 14:00:00 11.3 2 Sudoeste 12 Sudoeste 0 956.5 -1.3 75
2018-01-01 13:00:00 7.6 2 Sudoeste 7 Oeste 0 956.5 -0.2 99
2018-01-01 12:00:00 6.6 0 Calma 8 Sudeste 0 957.1 0.9 99
2018-01-01 11:00:00 6.1 0 Calma 3 Sur 0 957.8 2.5 99
2018-01-01 10:00:00 5.7 0 Calma 7 Norte 0 956.7 1.3 99
2018-01-01 09:00:00 4.9 0 Calma 8 Sur 0 956.2 0.9 99
2018-01-01 08:00:00 5.5 0 Calma -- -- 0 955.3 -0.4 99
2018-01-01 07:00:00 6.2 0 Calma 9 Nordeste 0 955.4 0.1 99
2018-01-01 06:00:00 5.9 0 Calma 11 Sur 0 955.3 -0.8 99
2018-01-01 05:00:00 6.5 0 Calma -- -- 0 955.7 -0.2 98
2018-01-01 04:00:00 6.6 0 Calma 9 Sudoeste 0 955.3 0.1 95
2018-01-01 03:00:00 7.5 5 Sudoeste 10 Sudoeste 0 956.1 0.9 94
2018-01-01 02:00:00 8.2 0 Calma 14 Sudoeste 0 955.9 1.2 92
2018-01-01 01:00:00 9.2 7 Sudoeste 19 Sudoeste 0 955.2 1.3 84
2018-01-01 00:00:00 10 9 Sudoeste 19 Oeste 0 955.2 2.9 83
2017-12-31 23:00:00 10.6 12 Sudoeste 31 Sudoeste 0 954.7 3.3 89
2017-12-31 22:00:00 11 22 Sudoeste 36 Sudoeste 0 953.9 3.6 89
2017-12-31 21:00:00 11.3 22 Sudoeste 35 Sudoeste 0 952.3 2.4 83
2017-12-31 20:00:00 10.6 19 Sudoeste 31 Sudoeste 0 951.4 1.2 89
2017-12-31 19:00:00 10.1 9 Sudoeste 23 Oeste 0 950.3 0.2 97
2017-12-31 18:00:00 10.4 16 Sudoeste 34 Sur 0 949.9 0.3 93
2017-12-31 17:00:00 10.5 17 Sudoeste 32 Sudoeste 0 950.2 0.8 96
2017-12-31 16:00:00 10.8 19 Sudoeste 34 Sudoeste 0 950.1 0.1 99
2017-12-31 15:00:00 10.6 5 Sudoeste 27 Sudoeste 0 949.6 -1 99
2017-12-31 14:00:00 9.7 0 Calma 0 Calma 0 949.4 -0.9 99
2017-12-31 13:00:00 8.2 0 Calma 3 Sudoeste 0 950 1.3 99
2017-12-31 12:00:00 6.8 0 Calma -- -- 0 950.6 2.5 99
2017-12-31 11:00:00 7 0 Calma 0 Calma 0 950.3 2.5 99
2017-12-31 10:00:00 4.9 0 Calma -- -- 0 948.7 0.5 99
2017-12-31 09:00:00 5.2 0 Calma -- -- 0 948.1 -0.2 99
2017-12-31 08:00:00 4.2 0 Calma -- -- 0 947.8 -0.5 99
2017-12-31 07:00:00 4.5 0 Calma -- -- 0 948.2 -0.2 99
2017-12-31 06:00:00 5.2 0 Calma -- -- 0 948.3 -1.3 99
2017-12-31 05:00:00 5.8 0 Calma -- -- 0 948.3 -1.4 99
2017-12-31 04:00:00 5.6 0 Calma -- -- 0 948.4 -1.6 99
2017-12-31 03:00:00 6.7 0 Calma -- -- 0 949.6 -1.2 99
2017-12-31 02:00:00 7.1 0 Calma -- -- 0 949.7 -1.5 99
2017-12-31 01:00:00 7.6 0 Calma -- -- 0 950 -1.4 98